Date,TemperatureHighF,TemperatureAvgF,TemperatureLowF,DewpointHighF,DewpointAvgF,DewpointLowF,HumidityHigh,HumidityAvg,HumidityLow,PressureMaxIn,PressureMinIn,WindSpeedMaxMPH,WindSpeedAvgMPH,GustSpeedMaxMPH,PrecipitationSumIn
2013-1-1,28.0,15.1,5.0,22.0,12.2,2.0,93,88,73,30.67,30.53,5,2,10,0.01
2013-1-2,28.0,8.9,-1.0,18.0,5.3,-4.0,91,85,67,30.65,30.55,9,2,14,0.01
2013-1-3,30.0,12.9,-3.0,18.0,6.9,-6.0,89,78,57,30.57,30.45,8,2,13,0.01
2013-1-4,43.0,25.5,16.0,30.0,19.2,12.0,94,78,57,30.54,30.32,6,3,11,0.06
2013-1-5,27.0,22.1,17.0,26.0,18.4,13.0,99,86,77,30.34,30.25,6,3,10,0.01
2013-1-6,40.0,29.2,22.0,29.0,24.3,19.0,93,82,60,30.30,30.18,8,3,15,0.00
2013-1-7,44.0,36.5,29.0,38.0,32.4,26.0,96,85,74,30.19,30.09,14,6,25,0.04
2013-1-8,44.0,37.9,35.0,38.0,34.2,31.0,96,87,73,30.19,30.02,12,7,22,0.04
2013-1-9,42.0,33.7,22.0,34.0,27.9,19.0,91,79,66,30.03,29.73,19,6,38,0.02
2013-1-10,31.0,21.8,12.0,24.0,17.4,9.0,92,83,62,30.09,29.87,9,3,19,0.02
2013-1-11,28.0,15.7,4.0,17.0,10.3,1.0,92,80,55,30.36,30.08,10,2,17,0.01
2013-1-12,29.0,7.6,-5.0,12.0,1.8,-9.0,88,78,39,30.53,30.35,7,1,13,0.01
2013-1-13,30.0,6.7,-9.0,10.0,-0.7,-13.0,88,74,37,30.64,30.53,5,1,8,0.01
2013-1-14,39.0,16.6,0.0,23.0,9.2,-3.0,87,74,42,30.68,30.55,6,2,15,0.01
2013-1-15,47.0,23.0,8.0,24.0,15.7,5.0,91,76,36,30.76,30.61,6,1,10,0.00
2013-1-16,51.0,24.6,7.0,24.0,15.1,4.0,91,72,25,30.79,30.63,6,1,9,0.00
2013-1-17,50.0,26.6,13.0,24.0,17.0,11.0,91,71,31,30.65,30.47,7,2,12,0.00
2013-1-18,50.0,26.9,14.0,22.0,17.1,11.0,90,70,29,30.53,30.42,7,3,12,0.00
2013-1-19,51.0,26.3,11.0,23.0,16.5,9.0,100,71,27,30.55,30.42,6,2,11,0.00
2013-1-20,47.0,23.4,8.0,20.0,13.5,5.0,90,70,29,30.56,30.45,6,2,11,0.00
2013-1-21,53.0,25.9,10.0,20.0,13.5,7.0,88,64,20,30.48,30.29,8,4,14,0.00
2013-1-22,53.0,28.3,13.0,22.0,15.4,9.0,85,63,23,30.32,30.12,8,2,15,0.00
2013-1-23,45.0,37.8,29.0,35.0,25.9,17.0,92,64,37,30.12,29.88,13,6,25,0.01
2013-1-24,48.0,41.4,35.0,38.0,35.0,33.0,95,79,60,30.16,30.09,10,5,19,0.03
2013-1-25,40.0,38.4,36.0,39.0,37.1,33.0,96,95,87,30.15,29.90,9,5,17,0.31
2013-1-26,38.0,31.5,26.0,34.0,25.8,21.0,95,80,58,30.04,29.90,9,4,20,0.03
2013-1-27,33.0,27.0,20.0,26.0,22.9,18.0,94,85,64,30.13,30.04,9,4,18,0.00
2013-1-28,32.0,29.5,27.0,29.0,26.5,24.0,94,89,81,30.17,30.06,10,5,21,0.00
2013-1-29,39.0,34.3,30.0,31.0,29.5,28.0,94,83,74,30.42,30.16,13,8,24,0.02
2013-1-30,42.0,36.0,30.0,35.0,31.1,27.0,93,82,73,30.45,30.40,10,4,18,0.01
2013-1-31,53.0,33.4,23.0,33.0,27.6,22.0,96,81,44,30.42,30.32,5,1,8,0.01